sensor_id;sensor_type;location;lat;lon;timestamp;P1;durP1;ratioP1;P2;durP2;ratioP2
46689;SDS011;32423;45.398;10.874;2024-03-25T00:01:22;8.20;;;2.78;;
46689;SDS011;32423;45.398;10.874;2024-03-25T00:04:14;4.25;;;2.30;;
46689;SDS011;32423;45.398;10.874;2024-03-25T00:07:08;8.35;;;2.53;;
46689;SDS011;32423;45.398;10.874;2024-03-25T00:10:03;5.53;;;2.50;;
46689;SDS011;32423;45.398;10.874;2024-03-25T00:12:58;4.00;;;2.65;;
46689;SDS011;32423;45.398;10.874;2024-03-25T00:15:50;3.22;;;2.50;;
46689;SDS011;32423;45.398;10.874;2024-03-25T00:18:43;3.93;;;1.80;;
46689;SDS011;32423;45.398;10.874;2024-03-25T00:21:37;3.22;;;2.15;;
46689;SDS011;32423;45.398;10.874;2024-03-25T00:24:32;7.13;;;2.33;;
46689;SDS011;32423;45.398;10.874;2024-03-25T00:27:26;5.00;;;3.10;;
46689;SDS011;32423;45.398;10.874;2024-03-25T00:30:21;4.75;;;2.78;;
46689;SDS011;32423;45.398;10.874;2024-03-25T00:33:15;1.92;;;1.33;;
46689;SDS011;32423;45.398;10.874;2024-03-25T00:36:10;4.40;;;1.73;;
46689;SDS011;32423;45.398;10.874;2024-03-25T00:39:02;4.47;;;1.80;;
46689;SDS011;32423;45.398;10.874;2024-03-25T00:41:58;3.10;;;1.90;;
46689;SDS011;32423;45.398;10.874;2024-03-25T00:44:52;1.80;;;1.13;;
46689;SDS011;32423;45.398;10.874;2024-03-25T00:47:47;2.50;;;1.55;;
46689;SDS011;32423;45.398;10.874;2024-03-25T00:50:44;3.33;;;1.77;;
46689;SDS011;32423;45.398;10.874;2024-03-25T00:53:39;2.80;;;1.40;;
46689;SDS011;32423;45.398;10.874;2024-03-25T00:56:34;2.07;;;1.40;;
46689;SDS011;32423;45.398;10.874;2024-03-25T00:59:26;6.15;;;3.47;;
46689;SDS011;32423;45.398;10.874;2024-03-25T01:02:18;3.67;;;1.45;;
46689;SDS011;32423;45.398;10.874;2024-03-25T01:05:12;2.83;;;1.50;;
46689;SDS011;32423;45.398;10.874;2024-03-25T01:08:04;1.90;;;1.40;;
46689;SDS011;32423;45.398;10.874;2024-03-25T01:11:05;3.42;;;1.17;;
46689;SDS011;32423;45.398;10.874;2024-03-25T01:14:00;6.93;;;1.23;;
46689;SDS011;32423;45.398;10.874;2024-03-25T01:16:52;3.97;;;0.88;;
46689;SDS011;32423;45.398;10.874;2024-03-25T01:19:51;3.47;;;2.05;;
46689;SDS011;32423;45.398;10.874;2024-03-25T01:22:43;5.78;;;1.58;;
46689;SDS011;32423;45.398;10.874;2024-03-25T01:25:35;3.17;;;1.50;;
46689;SDS011;32423;45.398;10.874;2024-03-25T01:28:30;3.60;;;2.00;;
46689;SDS011;32423;45.398;10.874;2024-03-25T01:31:22;3.58;;;1.70;;
46689;SDS011;32423;45.398;10.874;2024-03-25T01:34:17;3.35;;;1.38;;
46689;SDS011;32423;45.398;10.874;2024-03-25T01:37:14;2.55;;;1.30;;
46689;SDS011;32423;45.398;10.874;2024-03-25T01:40:09;1.75;;;1.00;;
46689;SDS011;32423;45.398;10.874;2024-03-25T01:43:04;3.15;;;1.33;;
46689;SDS011;32423;45.398;10.874;2024-03-25T01:45:58;4.10;;;1.30;;
46689;SDS011;32423;45.398;10.874;2024-03-25T01:48:53;1.88;;;0.90;;
46689;SDS011;32423;45.398;10.874;2024-03-25T01:51:43;3.22;;;1.05;;
46689;SDS011;32423;45.398;10.874;2024-03-25T01:54:38;2.90;;;0.90;;
46689;SDS011;32423;45.398;10.874;2024-03-25T02:00:21;6.55;;;1.27;;
46689;SDS011;32423;45.398;10.874;2024-03-25T02:03:16;2.30;;;1.10;;
46689;SDS011;32423;45.398;10.874;2024-03-25T02:06:10;2.75;;;1.05;;
46689;SDS011;32423;45.398;10.874;2024-03-25T02:09:09;1.67;;;0.98;;
46689;SDS011;32423;45.398;10.874;2024-03-25T02:14:53;2.50;;;1.08;;
46689;SDS011;32423;45.398;10.874;2024-03-25T02:17:42;1.63;;;1.00;;
46689;SDS011;32423;45.398;10.874;2024-03-25T02:20:37;4.55;;;1.30;;
46689;SDS011;32423;45.398;10.874;2024-03-25T02:23:34;1.35;;;1.15;;
46689;SDS011;32423;45.398;10.874;2024-03-25T02:26:31;1.88;;;0.98;;
46689;SDS011;32423;45.398;10.874;2024-03-25T02:29:23;1.63;;;1.20;;
46689;SDS011;32423;45.398;10.874;2024-03-25T02:32:24;1.77;;;1.05;;
46689;SDS011;32423;45.398;10.874;2024-03-25T02:35:15;2.38;;;0.80;;
46689;SDS011;32423;45.398;10.874;2024-03-25T02:38:10;2.13;;;1.08;;
46689;SDS011;32423;45.398;10.874;2024-03-25T02:41:02;1.50;;;0.83;;
46689;SDS011;32423;45.398;10.874;2024-03-25T02:43:54;1.80;;;1.00;;
46689;SDS011;32423;45.398;10.874;2024-03-25T02:46:46;1.58;;;1.05;;
46689;SDS011;32423;45.398;10.874;2024-03-25T02:49:44;3.33;;;1.13;;
46689;SDS011;32423;45.398;10.874;2024-03-25T02:52:39;2.22;;;1.35;;
46689;SDS011;32423;45.398;10.874;2024-03-25T02:55:34;1.38;;;1.02;;
46689;SDS011;32423;45.398;10.874;2024-03-25T02:58:28;3.07;;;1.30;;
46689;SDS011;32423;45.398;10.874;2024-03-25T03:01:23;1.35;;;1.08;;
46689;SDS011;32423;45.398;10.874;2024-03-25T03:04:17;6.60;;;2.30;;
46689;SDS011;32423;45.398;10.874;2024-03-25T03:07:12;4.80;;;1.43;;
46689;SDS011;32423;45.398;10.874;2024-03-25T03:10:06;1.80;;;0.87;;
46689;SDS011;32423;45.398;10.874;2024-03-25T03:13:01;4.03;;;1.50;;
46689;SDS011;32423;45.398;10.874;2024-03-25T03:15:55;3.33;;;1.17;;
46689;SDS011;32423;45.398;10.874;2024-03-25T03:18:50;1.75;;;1.02;;
46689;SDS011;32423;45.398;10.874;2024-03-25T03:21:44;0.80;;;0.47;;
46689;SDS011;32423;45.398;10.874;2024-03-25T03:24:36;2.07;;;1.27;;
46689;SDS011;32423;45.398;10.874;2024-03-25T03:27:29;2.58;;;0.88;;
46689;SDS011;32423;45.398;10.874;2024-03-25T03:30:23;4.10;;;1.55;;
46689;SDS011;32423;45.398;10.874;2024-03-25T03:33:15;2.50;;;1.13;;
46689;SDS011;32423;45.398;10.874;2024-03-25T03:36:10;0.98;;;0.75;;
46689;SDS011;32423;45.398;10.874;2024-03-25T03:39:04;0.87;;;0.67;;
46689;SDS011;32423;45.398;10.874;2024-03-25T03:41:59;1.90;;;1.00;;
46689;SDS011;32423;45.398;10.874;2024-03-25T03:44:51;1.95;;;0.95;;
46689;SDS011;32423;45.398;10.874;2024-03-25T03:47:45;2.03;;;1.10;;
46689;SDS011;32423;45.398;10.874;2024-03-25T03:50:40;5.20;;;1.02;;
46689;SDS011;32423;45.398;10.874;2024-03-25T03:53:36;1.70;;;0.90;;
46689;SDS011;32423;45.398;10.874;2024-03-25T03:56:28;1.65;;;0.80;;
46689;SDS011;32423;45.398;10.874;2024-03-25T03:59:17;2.28;;;0.93;;
46689;SDS011;32423;45.398;10.874;2024-03-25T04:02:12;1.80;;;0.87;;
46689;SDS011;32423;45.398;10.874;2024-03-25T04:05:07;1.20;;;1.10;;
46689;SDS011;32423;45.398;10.874;2024-03-25T04:07:59;1.60;;;0.70;;
46689;SDS011;32423;45.398;10.874;2024-03-25T04:11:00;3.92;;;1.05;;
46689;SDS011;32423;45.398;10.874;2024-03-25T04:13:55;2.17;;;0.70;;
46689;SDS011;32423;45.398;10.874;2024-03-25T04:16:50;2.77;;;0.77;;
46689;SDS011;32423;45.398;10.874;2024-03-25T04:19:42;3.00;;;0.87;;
46689;SDS011;32423;45.398;10.874;2024-03-25T04:22:36;1.40;;;0.63;;
46689;SDS011;32423;45.398;10.874;2024-03-25T04:25:32;1.17;;;1.00;;
46689;SDS011;32423;45.398;10.874;2024-03-25T04:28:27;1.77;;;0.73;;
46689;SDS011;32423;45.398;10.874;2024-03-25T04:31:22;1.70;;;0.80;;
46689;SDS011;32423;45.398;10.874;2024-03-25T04:34:17;1.30;;;0.70;;
46689;SDS011;32423;45.398;10.874;2024-03-25T04:37:07;3.60;;;1.33;;
46689;SDS011;32423;45.398;10.874;2024-03-25T04:40:02;1.15;;;0.55;;
46689;SDS011;32423;45.398;10.874;2024-03-25T04:45:49;2.42;;;0.50;;
46689;SDS011;32423;45.398;10.874;2024-03-25T04:48:44;1.85;;;0.80;;
46689;SDS011;32423;45.398;10.874;2024-03-25T04:51:36;0.87;;;0.57;;
46689;SDS011;32423;45.398;10.874;2024-03-25T04:54:30;1.13;;;0.50;;
46689;SDS011;32423;45.398;10.874;2024-03-25T04:57:25;0.68;;;0.50;;
46689;SDS011;32423;45.398;10.874;2024-03-25T05:00:19;5.53;;;0.98;;
46689;SDS011;32423;45.398;10.874;2024-03-25T05:03:14;1.35;;;1.20;;
46689;SDS011;32423;45.398;10.874;2024-03-25T05:06:06;1.33;;;0.45;;
46689;SDS011;32423;45.398;10.874;2024-03-25T05:08:58;0.90;;;0.55;;
46689;SDS011;32423;45.398;10.874;2024-03-25T05:11:53;6.17;;;0.73;;
46689;SDS011;32423;45.398;10.874;2024-03-25T05:14:45;3.72;;;0.75;;
46689;SDS011;32423;45.398;10.874;2024-03-25T05:17:39;5.10;;;2.57;;
46689;SDS011;32423;45.398;10.874;2024-03-25T05:20:34;3.45;;;1.73;;
46689;SDS011;32423;45.398;10.874;2024-03-25T05:23:26;1.38;;;1.00;;
46689;SDS011;32423;45.398;10.874;2024-03-25T05:26:21;3.93;;;1.33;;
46689;SDS011;32423;45.398;10.874;2024-03-25T05:29:15;2.63;;;0.90;;
46689;SDS011;32423;45.398;10.874;2024-03-25T05:32:10;7.85;;;1.10;;
46689;SDS011;32423;45.398;10.874;2024-03-25T05:35:04;6.27;;;0.80;;
46689;SDS011;32423;45.398;10.874;2024-03-25T05:37:56;1.77;;;0.70;;
46689;SDS011;32423;45.398;10.874;2024-03-25T05:40:49;2.97;;;0.77;;
46689;SDS011;32423;45.398;10.874;2024-03-25T05:43:43;2.33;;;0.63;;
46689;SDS011;32423;45.398;10.874;2024-03-25T05:46:35;7.73;;;0.90;;
46689;SDS011;32423;45.398;10.874;2024-03-25T05:49:28;1.58;;;1.13;;
46689;SDS011;32423;45.398;10.874;2024-03-25T05:52:28;7.07;;;1.52;;
46689;SDS011;32423;45.398;10.874;2024-03-25T05:55:22;4.53;;;0.80;;
46689;SDS011;32423;45.398;10.874;2024-03-25T05:58:12;8.82;;;1.02;;
46689;SDS011;32423;45.398;10.874;2024-03-25T06:01:04;3.17;;;1.70;;
46689;SDS011;32423;45.398;10.874;2024-03-25T06:03:59;5.60;;;1.20;;
46689;SDS011;32423;45.398;10.874;2024-03-25T06:06:54;1.92;;;0.70;;
46689;SDS011;32423;45.398;10.874;2024-03-25T06:09:49;3.42;;;0.85;;
46689;SDS011;32423;45.398;10.874;2024-03-25T06:12:44;4.25;;;1.35;;
46689;SDS011;32423;45.398;10.874;2024-03-25T06:15:38;2.15;;;1.40;;
46689;SDS011;32423;45.398;10.874;2024-03-25T06:18:33;2.07;;;1.50;;
46689;SDS011;32423;45.398;10.874;2024-03-25T06:21:25;2.20;;;2.00;;
46689;SDS011;32423;45.398;10.874;2024-03-25T06:24:19;4.30;;;1.13;;
46689;SDS011;32423;45.398;10.874;2024-03-25T06:27:14;1.63;;;0.75;;
46689;SDS011;32423;45.398;10.874;2024-03-25T06:30:06;1.00;;;0.70;;
46689;SDS011;32423;45.398;10.874;2024-03-25T06:33:18;5.63;;;1.23;;
46689;SDS011;32423;45.398;10.874;2024-03-25T06:36:29;4.93;;;1.80;;
46689;SDS011;32423;45.398;10.874;2024-03-25T06:39:21;4.68;;;1.00;;
46689;SDS011;32423;45.398;10.874;2024-03-25T06:42:16;1.20;;;0.63;;
46689;SDS011;32423;45.398;10.874;2024-03-25T06:45:08;1.88;;;1.35;;
46689;SDS011;32423;45.398;10.874;2024-03-25T06:48:01;6.50;;;1.90;;
46689;SDS011;32423;45.398;10.874;2024-03-25T06:50:55;2.22;;;1.05;;
46689;SDS011;32423;45.398;10.874;2024-03-25T06:53:52;6.03;;;1.38;;
46689;SDS011;32423;45.398;10.874;2024-03-25T06:56:46;5.65;;;0.80;;
46689;SDS011;32423;45.398;10.874;2024-03-25T06:59:44;2.63;;;1.08;;
46689;SDS011;32423;45.398;10.874;2024-03-25T07:02:38;4.40;;;2.20;;
46689;SDS011;32423;45.398;10.874;2024-03-25T07:05:33;4.65;;;1.85;;
46689;SDS011;32423;45.398;10.874;2024-03-25T07:08:28;6.77;;;1.37;;
46689;SDS011;32423;45.398;10.874;2024-03-25T07:11:22;7.68;;;1.95;;
46689;SDS011;32423;45.398;10.874;2024-03-25T07:14:17;6.28;;;1.27;;
46689;SDS011;32423;45.398;10.874;2024-03-25T07:17:12;6.10;;;2.50;;
46689;SDS011;32423;45.398;10.874;2024-03-25T07:20:07;6.23;;;2.40;;
46689;SDS011;32423;45.398;10.874;2024-03-25T07:23:00;10.48;;;3.13;;
46689;SDS011;32423;45.398;10.874;2024-03-25T07:25:54;6.85;;;2.83;;
46689;SDS011;32423;45.398;10.874;2024-03-25T07:28:49;7.15;;;2.60;;
46689;SDS011;32423;45.398;10.874;2024-03-25T07:31:44;7.93;;;3.58;;
46689;SDS011;32423;45.398;10.874;2024-03-25T07:34:38;10.30;;;4.18;;
46689;SDS011;32423;45.398;10.874;2024-03-25T07:37:31;13.67;;;3.57;;
46689;SDS011;32423;45.398;10.874;2024-03-25T07:40:30;12.07;;;3.25;;
46689;SDS011;32423;45.398;10.874;2024-03-25T07:43:25;13.32;;;4.07;;
46689;SDS011;32423;45.398;10.874;2024-03-25T07:46:19;4.37;;;2.37;;
46689;SDS011;32423;45.398;10.874;2024-03-25T07:49:11;5.73;;;2.77;;
46689;SDS011;32423;45.398;10.874;2024-03-25T07:52:03;7.80;;;3.28;;
46689;SDS011;32423;45.398;10.874;2024-03-25T07:54:58;7.83;;;2.93;;
46689;SDS011;32423;45.398;10.874;2024-03-25T07:57:53;6.40;;;2.47;;
46689;SDS011;32423;45.398;10.874;2024-03-25T08:00:45;6.78;;;3.00;;
46689;SDS011;32423;45.398;10.874;2024-03-25T08:03:40;5.33;;;2.27;;
46689;SDS011;32423;45.398;10.874;2024-03-25T08:06:34;6.18;;;2.58;;
46689;SDS011;32423;45.398;10.874;2024-03-25T08:09:29;6.73;;;2.40;;
46689;SDS011;32423;45.398;10.874;2024-03-25T08:12:23;8.15;;;2.50;;
46689;SDS011;32423;45.398;10.874;2024-03-25T08:15:18;3.63;;;2.27;;
46689;SDS011;32423;45.398;10.874;2024-03-25T08:18:10;5.97;;;2.40;;
46689;SDS011;32423;45.398;10.874;2024-03-25T08:21:05;6.55;;;2.15;;
46689;SDS011;32423;45.398;10.874;2024-03-25T08:23:59;4.25;;;2.05;;
46689;SDS011;32423;45.398;10.874;2024-03-25T08:26:54;11.70;;;1.60;;
46689;SDS011;32423;45.398;10.874;2024-03-25T08:29:48;8.07;;;3.33;;
46689;SDS011;32423;45.398;10.874;2024-03-25T08:32:43;4.28;;;2.10;;
46689;SDS011;32423;45.398;10.874;2024-03-25T08:35:35;11.82;;;2.90;;
46689;SDS011;32423;45.398;10.874;2024-03-25T08:38:32;7.45;;;3.15;;
46689;SDS011;32423;45.398;10.874;2024-03-25T08:41:28;4.45;;;2.15;;
46689;SDS011;32423;45.398;10.874;2024-03-25T08:44:22;5.43;;;1.92;;
46689;SDS011;32423;45.398;10.874;2024-03-25T08:47:17;2.70;;;1.73;;
46689;SDS011;32423;45.398;10.874;2024-03-25T08:50:11;4.30;;;2.07;;
46689;SDS011;32423;45.398;10.874;2024-03-25T08:53:04;22.60;;;2.20;;
46689;SDS011;32423;45.398;10.874;2024-03-25T08:55:58;4.10;;;1.92;;
46689;SDS011;32423;45.398;10.874;2024-03-25T08:58:53;5.43;;;2.07;;
46689;SDS011;32423;45.398;10.874;2024-03-25T09:01:45;5.25;;;1.95;;
46689;SDS011;32423;45.398;10.874;2024-03-25T09:04:39;53.77;;;3.30;;
46689;SDS011;32423;45.398;10.874;2024-03-25T09:07:34;4.72;;;1.27;;
46689;SDS011;32423;45.398;10.874;2024-03-25T09:10:28;4.07;;;1.77;;
46689;SDS011;32423;45.398;10.874;2024-03-25T09:13:39;6.28;;;1.50;;
46689;SDS011;32423;45.398;10.874;2024-03-25T09:16:32;4.90;;;1.37;;
46689;SDS011;32423;45.398;10.874;2024-03-25T09:19:26;10.10;;;1.80;;
46689;SDS011;32423;45.398;10.874;2024-03-25T09:22:18;3.95;;;1.38;;
46689;SDS011;32423;45.398;10.874;2024-03-25T09:25:10;5.88;;;1.67;;
46689;SDS011;32423;45.398;10.874;2024-03-25T09:28:05;13.10;;;2.55;;
46689;SDS011;32423;45.398;10.874;2024-03-25T09:31:00;4.35;;;1.40;;
46689;SDS011;32423;45.398;10.874;2024-03-25T09:33:54;7.57;;;1.90;;
46689;SDS011;32423;45.398;10.874;2024-03-25T09:36:49;4.10;;;1.10;;
46689;SDS011;32423;45.398;10.874;2024-03-25T09:39:43;4.17;;;1.00;;
46689;SDS011;32423;45.398;10.874;2024-03-25T09:42:35;28.95;;;3.83;;
46689;SDS011;32423;45.398;10.874;2024-03-25T09:45:30;2.78;;;1.20;;
46689;SDS011;32423;45.398;10.874;2024-03-25T09:48:27;3.35;;;1.30;;
46689;SDS011;32423;45.398;10.874;2024-03-25T09:51:23;3.15;;;1.10;;
46689;SDS011;32423;45.398;10.874;2024-03-25T09:54:18;12.15;;;1.20;;
46689;SDS011;32423;45.398;10.874;2024-03-25T09:57:10;8.57;;;1.02;;
46689;SDS011;32423;45.398;10.874;2024-03-25T10:00:05;2.72;;;1.10;;
46689;SDS011;32423;45.398;10.874;2024-03-25T10:03:04;2.97;;;1.15;;
46689;SDS011;32423;45.398;10.874;2024-03-25T10:05:59;2.78;;;1.27;;
46689;SDS011;32423;45.398;10.874;2024-03-25T10:08:57;6.55;;;0.75;;
46689;SDS011;32423;45.398;10.874;2024-03-25T10:11:53;9.20;;;1.52;;
46689;SDS011;32423;45.398;10.874;2024-03-25T10:14:48;6.00;;;1.48;;
46689;SDS011;32423;45.398;10.874;2024-03-25T10:17:43;3.17;;;1.30;;
46689;SDS011;32423;45.398;10.874;2024-03-25T10:20:47;3.05;;;0.85;;
46689;SDS011;32423;45.398;10.874;2024-03-25T10:23:43;1.67;;;1.00;;
46689;SDS011;32423;45.398;10.874;2024-03-25T10:26:38;3.78;;;1.35;;
46689;SDS011;32423;45.398;10.874;2024-03-25T10:29:34;2.35;;;1.00;;
46689;SDS011;32423;45.398;10.874;2024-03-25T10:32:26;5.80;;;1.63;;
46689;SDS011;32423;45.398;10.874;2024-03-25T10:35:18;7.85;;;1.67;;
46689;SDS011;32423;45.398;10.874;2024-03-25T10:38:13;3.33;;;0.70;;
46689;SDS011;32423;45.398;10.874;2024-03-25T10:41:08;2.00;;;0.90;;
46689;SDS011;32423;45.398;10.874;2024-03-25T10:44:03;0.75;;;0.65;;
46689;SDS011;32423;45.398;10.874;2024-03-25T10:47:01;1.85;;;0.75;;
46689;SDS011;32423;45.398;10.874;2024-03-25T10:49:59;1.52;;;0.60;;
46689;SDS011;32423;45.398;10.874;2024-03-25T10:52:58;6.88;;;0.90;;
46689;SDS011;32423;45.398;10.874;2024-03-25T10:55:54;5.40;;;1.08;;
46689;SDS011;32423;45.398;10.874;2024-03-25T10:58:55;1.10;;;0.60;;
46689;SDS011;32423;45.398;10.874;2024-03-25T11:01:48;3.30;;;0.80;;
46689;SDS011;32423;45.398;10.874;2024-03-25T11:04:45;5.90;;;1.48;;
46689;SDS011;32423;45.398;10.874;2024-03-25T11:07:36;2.13;;;0.90;;
46689;SDS011;32423;45.398;10.874;2024-03-25T11:10:31;4.20;;;1.27;;
46689;SDS011;32423;45.398;10.874;2024-03-25T11:13:26;3.53;;;1.27;;
46689;SDS011;32423;45.398;10.874;2024-03-25T11:16:31;1.83;;;1.13;;
46689;SDS011;32423;45.398;10.874;2024-03-25T11:19:27;4.22;;;0.80;;
46689;SDS011;32423;45.398;10.874;2024-03-25T11:22:24;1.55;;;1.00;;
46689;SDS011;32423;45.398;10.874;2024-03-25T11:25:19;1.85;;;0.70;;
46689;SDS011;32423;45.398;10.874;2024-03-25T11:28:13;0.73;;;0.50;;
46689;SDS011;32423;45.398;10.874;2024-03-25T11:31:05;9.40;;;0.80;;
46689;SDS011;32423;45.398;10.874;2024-03-25T11:34:02;1.20;;;0.88;;
46689;SDS011;32423;45.398;10.874;2024-03-25T11:36:55;4.15;;;1.05;;
46689;SDS011;32423;45.398;10.874;2024-03-25T11:39:46;2.22;;;0.85;;
46689;SDS011;32423;45.398;10.874;2024-03-25T11:42:42;3.72;;;1.10;;
46689;SDS011;32423;45.398;10.874;2024-03-25T11:45:37;2.45;;;1.00;;
46689;SDS011;32423;45.398;10.874;2024-03-25T11:48:31;11.27;;;0.95;;
46689;SDS011;32423;45.398;10.874;2024-03-25T11:51:26;7.30;;;1.20;;
46689;SDS011;32423;45.398;10.874;2024-03-25T11:54:21;3.90;;;1.35;;
46689;SDS011;32423;45.398;10.874;2024-03-25T11:57:15;4.63;;;0.80;;
46689;SDS011;32423;45.398;10.874;2024-03-25T12:00:10;2.85;;;1.13;;
46689;SDS011;32423;45.398;10.874;2024-03-25T12:03:06;5.30;;;1.35;;
46689;SDS011;32423;45.398;10.874;2024-03-25T12:06:02;1.52;;;1.00;;
46689;SDS011;32423;45.398;10.874;2024-03-25T12:08:57;34.78;;;2.42;;
46689;SDS011;32423;45.398;10.874;2024-03-25T12:12:03;5.05;;;1.58;;
46689;SDS011;32423;45.398;10.874;2024-03-25T12:15:01;7.70;;;1.10;;
46689;SDS011;32423;45.398;10.874;2024-03-25T12:17:56;1.85;;;0.80;;
46689;SDS011;32423;45.398;10.874;2024-03-25T12:20:48;2.63;;;0.70;;
46689;SDS011;32423;45.398;10.874;2024-03-25T12:23:42;2.85;;;0.75;;
46689;SDS011;32423;45.398;10.874;2024-03-25T12:26:39;3.78;;;0.60;;
46689;SDS011;32423;45.398;10.874;2024-03-25T12:29:33;1.63;;;1.33;;
46689;SDS011;32423;45.398;10.874;2024-03-25T12:35:30;1.08;;;0.60;;
46689;SDS011;32423;45.398;10.874;2024-03-25T12:38:30;0.98;;;0.60;;
46689;SDS011;32423;45.398;10.874;2024-03-25T12:44:17;8.10;;;0.80;;
46689;SDS011;32423;45.398;10.874;2024-03-25T12:47:11;5.85;;;1.42;;
46689;SDS011;32423;45.398;10.874;2024-03-25T12:50:04;3.45;;;1.15;;
46689;SDS011;32423;45.398;10.874;2024-03-25T12:52:56;3.05;;;1.30;;
46689;SDS011;32423;45.398;10.874;2024-03-25T12:55:51;2.15;;;1.48;;
46689;SDS011;32423;45.398;10.874;2024-03-25T12:58:45;1.40;;;1.08;;
46689;SDS011;32423;45.398;10.874;2024-03-25T13:01:40;2.17;;;1.20;;
46689;SDS011;32423;45.398;10.874;2024-03-25T13:04:32;2.83;;;1.10;;
46689;SDS011;32423;45.398;10.874;2024-03-25T13:07:26;3.70;;;1.35;;
46689;SDS011;32423;45.398;10.874;2024-03-25T13:10:16;4.88;;;1.73;;
46689;SDS011;32423;45.398;10.874;2024-03-25T13:13:11;2.42;;;1.30;;
46689;SDS011;32423;45.398;10.874;2024-03-25T13:16:06;9.10;;;1.55;;
46689;SDS011;32423;45.398;10.874;2024-03-25T13:19:00;3.30;;;1.35;;
46689;SDS011;32423;45.398;10.874;2024-03-25T13:21:55;1.75;;;0.90;;
46689;SDS011;32423;45.398;10.874;2024-03-25T13:24:49;3.08;;;1.35;;
46689;SDS011;32423;45.398;10.874;2024-03-25T13:27:44;2.00;;;0.95;;
46689;SDS011;32423;45.398;10.874;2024-03-25T13:30:38;6.47;;;1.35;;
46689;SDS011;32423;45.398;10.874;2024-03-25T13:33:33;0.45;;;0.35;;
46689;SDS011;32423;45.398;10.874;2024-03-25T13:36:28;1.27;;;0.90;;
46689;SDS011;32423;45.398;10.874;2024-03-25T13:39:22;4.03;;;0.80;;
46689;SDS011;32423;45.398;10.874;2024-03-25T13:42:17;8.20;;;1.95;;
46689;SDS011;32423;45.398;10.874;2024-03-25T13:45:09;4.13;;;0.85;;
46689;SDS011;32423;45.398;10.874;2024-03-25T13:48:03;1.73;;;0.63;;
46689;SDS011;32423;45.398;10.874;2024-03-25T13:50:58;3.60;;;0.68;;
46689;SDS011;32423;45.398;10.874;2024-03-25T13:53:53;3.75;;;0.57;;
46689;SDS011;32423;45.398;10.874;2024-03-25T13:56:47;2.72;;;0.70;;
46689;SDS011;32423;45.398;10.874;2024-03-25T13:59:39;1.85;;;0.60;;
46689;SDS011;32423;45.398;10.874;2024-03-25T14:02:34;2.00;;;0.93;;
46689;SDS011;32423;45.398;10.874;2024-03-25T14:05:28;2.22;;;1.00;;
46689;SDS011;32423;45.398;10.874;2024-03-25T14:08:23;1.42;;;0.68;;
46689;SDS011;32423;45.398;10.874;2024-03-25T14:11:18;2.95;;;1.08;;
46689;SDS011;32423;45.398;10.874;2024-03-25T14:14:12;3.33;;;0.98;;
46689;SDS011;32423;45.398;10.874;2024-03-25T14:17:07;1.92;;;0.55;;
46689;SDS011;32423;45.398;10.874;2024-03-25T14:19:59;2.30;;;0.88;;
46689;SDS011;32423;45.398;10.874;2024-03-25T14:22:56;1.38;;;0.70;;
46689;SDS011;32423;45.398;10.874;2024-03-25T14:25:50;3.25;;;0.60;;
46689;SDS011;32423;45.398;10.874;2024-03-25T14:28:46;1.73;;;0.95;;
46689;SDS011;32423;45.398;10.874;2024-03-25T14:31:40;7.45;;;2.92;;
46689;SDS011;32423;45.398;10.874;2024-03-25T14:34:34;5.38;;;1.45;;
46689;SDS011;32423;45.398;10.874;2024-03-25T14:37:29;8.90;;;1.23;;
46689;SDS011;32423;45.398;10.874;2024-03-25T14:40:22;3.85;;;1.20;;
46689;SDS011;32423;45.398;10.874;2024-03-25T14:43:19;2.35;;;0.80;;
46689;SDS011;32423;45.398;10.874;2024-03-25T14:46:14;1.65;;;1.00;;
46689;SDS011;32423;45.398;10.874;2024-03-25T14:49:08;3.00;;;1.08;;
46689;SDS011;32423;45.398;10.874;2024-03-25T14:52:00;1.38;;;0.98;;
46689;SDS011;32423;45.398;10.874;2024-03-25T14:54:55;1.77;;;0.85;;
46689;SDS011;32423;45.398;10.874;2024-03-25T14:57:47;2.92;;;1.73;;
46689;SDS011;32423;45.398;10.874;2024-03-25T15:00:42;1.77;;;0.93;;
46689;SDS011;32423;45.398;10.874;2024-03-25T15:03:36;1.75;;;1.23;;
46689;SDS011;32423;45.398;10.874;2024-03-25T15:06:31;1.95;;;1.20;;
46689;SDS011;32423;45.398;10.874;2024-03-25T15:09:25;2.30;;;1.63;;
46689;SDS011;32423;45.398;10.874;2024-03-25T15:12:20;2.03;;;1.17;;
46689;SDS011;32423;45.398;10.874;2024-03-25T15:15:16;2.53;;;1.50;;
46689;SDS011;32423;45.398;10.874;2024-03-25T15:18:14;6.40;;;1.40;;
46689;SDS011;32423;45.398;10.874;2024-03-25T15:23:58;2.88;;;1.35;;
46689;SDS011;32423;45.398;10.874;2024-03-25T15:26:47;4.75;;;2.17;;
46689;SDS011;32423;45.398;10.874;2024-03-25T15:29:42;5.97;;;2.22;;
46689;SDS011;32423;45.398;10.874;2024-03-25T15:32:31;4.68;;;1.80;;
46689;SDS011;32423;45.398;10.874;2024-03-25T15:35:23;2.25;;;1.45;;
46689;SDS011;32423;45.398;10.874;2024-03-25T15:38:18;6.15;;;2.53;;
46689;SDS011;32423;45.398;10.874;2024-03-25T15:41:10;5.28;;;2.72;;
46689;SDS011;32423;45.398;10.874;2024-03-25T15:44:04;6.90;;;1.92;;
46689;SDS011;32423;45.398;10.874;2024-03-25T15:46:56;4.07;;;1.60;;
46689;SDS011;32423;45.398;10.874;2024-03-25T15:49:48;9.27;;;1.33;;
46689;SDS011;32423;45.398;10.874;2024-03-25T15:52:42;3.27;;;1.10;;
46689;SDS011;32423;45.398;10.874;2024-03-25T15:55:37;2.28;;;1.40;;
46689;SDS011;32423;45.398;10.874;2024-03-25T15:58:32;5.03;;;1.23;;
46689;SDS011;32423;45.398;10.874;2024-03-25T16:01:24;13.88;;;1.50;;
46689;SDS011;32423;45.398;10.874;2024-03-25T16:04:19;2.28;;;0.70;;
46689;SDS011;32423;45.398;10.874;2024-03-25T16:07:13;8.02;;;1.60;;
46689;SDS011;32423;45.398;10.874;2024-03-25T16:10:05;4.63;;;1.03;;
46689;SDS011;32423;45.398;10.874;2024-03-25T16:13:01;7.13;;;1.33;;
46689;SDS011;32423;45.398;10.874;2024-03-25T16:16:01;8.25;;;1.35;;
46689;SDS011;32423;45.398;10.874;2024-03-25T16:18:54;6.78;;;1.42;;
46689;SDS011;32423;45.398;10.874;2024-03-25T16:21:43;3.58;;;1.60;;
46689;SDS011;32423;45.398;10.874;2024-03-25T16:24:38;63.75;;;3.75;;
46689;SDS011;32423;45.398;10.874;2024-03-25T16:27:35;7.90;;;1.65;;
46689;SDS011;32423;45.398;10.874;2024-03-25T16:30:30;2.92;;;1.80;;
46689;SDS011;32423;45.398;10.874;2024-03-25T16:33:22;48.95;;;4.50;;
46689;SDS011;32423;45.398;10.874;2024-03-25T16:36:15;13.40;;;2.65;;
46689;SDS011;32423;45.398;10.874;2024-03-25T16:39:10;11.98;;;2.70;;
46689;SDS011;32423;45.398;10.874;2024-03-25T16:42:05;13.43;;;3.65;;
46689;SDS011;32423;45.398;10.874;2024-03-25T16:44:59;31.17;;;2.97;;
46689;SDS011;32423;45.398;10.874;2024-03-25T16:47:52;6.10;;;1.77;;
46689;SDS011;32423;45.398;10.874;2024-03-25T16:50:44;11.18;;;2.45;;
46689;SDS011;32423;45.398;10.874;2024-03-25T16:53:39;6.30;;;2.17;;
46689;SDS011;32423;45.398;10.874;2024-03-25T16:56:34;5.22;;;2.13;;
46689;SDS011;32423;45.398;10.874;2024-03-25T16:59:26;5.47;;;2.55;;
46689;SDS011;32423;45.398;10.874;2024-03-25T17:02:21;17.67;;;4.05;;
46689;SDS011;32423;45.398;10.874;2024-03-25T17:05:16;16.35;;;3.45;;
46689;SDS011;32423;45.398;10.874;2024-03-25T17:08:10;6.78;;;2.55;;
46689;SDS011;32423;45.398;10.874;2024-03-25T17:11:02;9.85;;;3.30;;
46689;SDS011;32423;45.398;10.874;2024-03-25T17:13:54;17.37;;;3.00;;
46689;SDS011;32423;45.398;10.874;2024-03-25T17:16:48;10.88;;;2.40;;
46689;SDS011;32423;45.398;10.874;2024-03-25T17:19:40;8.57;;;2.67;;
46689;SDS011;32423;45.398;10.874;2024-03-25T17:22:32;15.10;;;2.60;;
46689;SDS011;32423;45.398;10.874;2024-03-25T17:25:35;22.83;;;2.88;;
46689;SDS011;32423;45.398;10.874;2024-03-25T17:28:28;13.55;;;1.80;;
46689;SDS011;32423;45.398;10.874;2024-03-25T17:31:20;8.40;;;3.27;;